Time;durP1;ratioP1;P1;durP2;ratioP2;P2;SDS_P1;SDS_P2;PMS_P1;PMS_P2;Temp;Humidity;BMP_temperature;BMP_pressure;BME280_temperature;BME280_humidity;BME280_pressure;Samples;Min_cycle;Max_cycle;Signal;HPM_P1;HPM_P2
2022/09/07 00:01:15;;;;;;;4.40;2.65;;;21.60;70.90;;;;;;4989541;28;20046;-47
2022/09/07 00:03:44;;;;;;;2.83;1.60;;;21.60;71.00;;;;;;4993010;28;20053;-48
2022/09/07 00:06:12;;;;;;;3.95;1.67;;;21.60;71.10;;;;;;4994936;28;20154;-50
2022/09/07 00:08:41;;;;;;;2.28;1.45;;;21.50;71.20;;;;;;5001971;28;20045;-49
2022/09/07 00:11:12;;;;;;;2.67;1.60;;;21.50;71.50;;;;;;4991894;28;20097;-48
2022/09/07 00:13:43;;;;;;;3.60;1.65;;;21.60;71.90;;;;;;5000460;28;20526;-49
2022/09/07 00:16:13;;;;;;;3.22;1.20;;;21.50;71.90;;;;;;5005212;28;20046;-50
2022/09/07 00:18:42;;;;;;;2.63;1.70;;;21.50;72.20;;;;;;4990173;28;20046;-48
2022/09/07 00:21:13;;;;;;;2.35;1.33;;;21.50;72.10;;;;;;4999032;28;20038;-51
2022/09/07 00:23:40;;;;;;;1.75;1.60;;;21.50;72.50;;;;;;4997168;28;20104;-51
2022/09/07 00:26:14;;;;;;;1.67;1.55;;;21.50;72.60;;;;;;4999830;28;20101;-49
2022/09/07 00:28:42;;;;;;;1.65;1.30;;;21.60;74.10;;;;;;4993871;28;20050;-47
2022/09/07 00:31:11;;;;;;;2.63;1.50;;;21.60;73.20;;;;;;4992876;28;20458;-49
2022/09/07 00:33:42;;;;;;;2.67;1.30;;;21.50;73.50;;;;;;4993278;28;20034;-52
2022/09/07 00:36:11;;;;;;;3.67;1.40;;;21.60;73.60;;;;;;4979897;28;20046;-50
2022/09/07 00:38:42;;;;;;;1.75;1.65;;;21.60;73.80;;;;;;5005638;28;20038;-47
2022/09/07 00:41:18;;;;;;;2.35;1.48;;;21.60;73.80;;;;;;5012309;28;20415;-47
2022/09/07 00:43:48;;;;;;;2.60;1.50;;;21.60;73.70;;;;;;4999849;28;20090;-49
2022/09/07 00:46:27;;;;;;;;;;;21.60;73.70;;;;;;5005744;28;20109;-50
2022/09/07 00:49:11;;;;;;;2.00;1.52;;;21.70;74.70;;;;;;5007753;28;19929;-50
2022/09/07 00:51:59;;;;;;;2.05;1.40;;;21.70;74.70;;;;;;4992127;28;20070;-47
2022/09/07 00:54:32;;;;;;;2.03;1.35;;;21.70;74.80;;;;;;4998915;28;20088;-48
2022/09/07 00:57:04;;;;;;;1.67;1.33;;;21.70;74.00;;;;;;4995040;28;20652;-48
2022/09/07 00:59:38;;;;;;;2.13;1.70;;;21.70;73.40;;;;;;4993346;28;20046;-49
2022/09/07 01:02:07;;;;;;;4.57;1.50;;;21.60;74.00;;;;;;4990911;28;20069;-50
2022/09/07 01:04:34;;;;;;;2.83;1.90;;;21.70;73.90;;;;;;4977711;28;20124;-51
2022/09/07 01:07:04;;;;;;;2.60;1.75;;;21.80;74.10;;;;;;5004525;28;20542;-49
2022/09/07 01:09:36;;;;;;;2.88;2.55;;;21.60;74.10;;;;;;5005489;28;20105;-50
2022/09/07 01:12:03;;;;;;;3.10;1.67;;;21.60;74.50;;;;;;4998546;28;20042;-49
2022/09/07 01:14:47;;;;;;;3.35;1.90;;;21.60;74.00;;;;;;5002500;28;20092;-50
2022/09/07 01:17:21;;;;;;;2.35;1.45;;;21.60;74.90;;;;;;5001356;28;20050;-50
2022/09/07 01:20:02;;;;;;;3.20;1.95;;;21.60;75.70;;;;;;4995404;28;20034;-49
2022/09/07 01:23:01;;;;;;;2.38;1.95;;;21.60;75.10;;;;;;4995730;28;20038;-49
2022/09/07 01:25:52;;;;;;;2.78;2.25;;;21.60;75.50;;;;;;4992837;28;20038;-46
2022/09/07 01:28:24;;;;;;;4.30;3.25;;;21.60;74.80;;;;;;4993330;28;20438;-49
2022/09/07 01:31:08;;;;;;;3.65;3.35;;;21.60;74.10;;;;;;4994016;28;20042;-48
2022/09/07 01:33:47;;;;;;;3.65;3.35;;;21.60;75.50;;;;;;4998859;28;20555;-48
2022/09/07 01:36:28;;;;;;;5.13;4.25;;;21.60;75.00;;;;;;4992123;28;20438;-48
2022/09/07 01:39:01;;;;;;;8.00;5.28;;;21.60;75.20;;;;;;4991803;28;20568;-49
2022/09/07 01:41:51;;;;;;;4.20;3.88;;;21.60;74.90;;;;;;5002443;28;20565;-47
2022/09/07 01:44:47;;;;;;;4.30;3.85;;;21.50;75.30;;;;;;4996312;28;20042;-49
2022/09/07 01:47:20;;;;;;;;;;;21.50;75.80;;;;;;5004391;28;20053;-49
2022/09/07 01:50:24;;;;;;;4.15;2.47;;;21.60;75.60;;;;;;4994120;28;19922;-48
2022/09/07 01:53:06;;;;;;;4.65;2.60;;;21.60;75.50;;;;;;4996676;28;20043;-50
2022/09/07 01:55:41;;;;;;;;;;;21.50;75.40;;;;;;4993485;28;20054;-47
2022/09/07 01:58:22;;;;;;;2.63;1.80;;;21.60;75.50;;;;;;4994772;28;20748;-51
2022/09/07 02:01:00;;;;;;;2.85;2.50;;;21.50;75.10;;;;;;4982163;28;20038;-48
2022/09/07 02:03:37;;;;;;;2.05;1.48;;;21.50;75.00;;;;;;4998572;28;20037;-49
2022/09/07 02:06:17;;;;;;;2.40;1.35;;;21.50;75.20;;;;;;5006341;28;20432;-49
2022/09/07 02:09:07;;;;;;;3.63;1.50;;;21.40;74.90;;;;;;5005034;28;20037;-47
2022/09/07 02:11:41;;;;;;;1.40;1.30;;;21.40;75.70;;;;;;4993691;28;20108;-50
2022/09/07 02:14:29;;;;;;;2.75;1.42;;;21.40;75.10;;;;;;5001527;28;20105;-49
2022/09/07 02:17:07;;;;;;;2.72;1.58;;;21.40;75.70;;;;;;5003653;28;20062;-51
2022/09/07 02:19:45;;;;;;;2.25;1.27;;;21.30;75.00;;;;;;4994134;28;20034;-50
2022/09/07 02:22:17;;;;;;;1.85;1.13;;;21.30;75.40;;;;;;4995837;28;20049;-49
2022/09/07 02:24:49;;;;;;;2.72;2.38;;;21.30;75.20;;;;;;4990350;28;20097;-50
2022/09/07 02:27:21;;;;;;;1.80;1.35;;;21.20;74.90;;;;;;5002424;28;20395;-49
2022/09/07 02:29:48;;;;;;;1.48;1.38;;;21.20;75.10;;;;;;5003789;28;20037;-50
2022/09/07 02:32:15;;;;;;;1.65;1.30;;;21.10;74.90;;;;;;5008451;28;20049;-51
2022/09/07 02:34:42;;;;;;;2.17;1.20;;;21.20;75.20;;;;;;4995766;28;20038;-50
2022/09/07 02:37:14;;;;;;;1.40;1.30;;;21.10;75.20;;;;;;4999004;28;20495;-50
2022/09/07 02:39:41;;;;;;;3.35;1.50;;;21.10;75.20;;;;;;5000012;28;20100;-49
2022/09/07 02:42:08;;;;;;;1.27;1.15;;;21.20;75.40;;;;;;5009610;28;20042;-47
2022/09/07 02:44:38;;;;;;;1.92;1.10;;;21.00;75.50;;;;;;5007089;28;20866;-47
2022/09/07 02:47:48;;;;;;;1.65;1.08;;;21.00;75.70;;;;;;4999590;28;20053;-50
2022/09/07 02:50:36;;;;;;;2.42;1.17;;;21.00;76.80;;;;;;4991426;28;20046;-50
2022/09/07 02:53:21;;;;;;;1.92;1.10;;;20.90;75.50;;;;;;4991535;28;20511;-52
2022/09/07 02:55:47;;;;;;;;;;;20.90;76.80;;;;;;4997666;28;20072;-48
2022/09/07 02:58:47;;;;;;;2.22;1.27;;;20.90;77.20;;;;;;4991646;28;19996;-46
2022/09/07 03:01:50;;;;;;;1.63;1.40;;;20.90;76.60;;;;;;4990042;28;20666;-49
2022/09/07 03:04:29;;;;;;;;;;;20.90;76.80;;;;;;4991330;28;20474;-52
2022/09/07 03:07:16;;;;;;;1.88;1.10;;;20.90;76.70;;;;;;5003668;28;19921;-49
2022/09/07 03:09:52;;;;;;;3.13;1.42;;;20.80;75.70;;;;;;4989757;28;20062;-48
2022/09/07 03:12:19;;;;;;;1.75;1.10;;;20.80;75.70;;;;;;4998752;28;20041;-47
2022/09/07 03:14:50;;;;;;;1.52;1.25;;;20.80;75.60;;;;;;4998564;28;20519;-49
2022/09/07 03:17:21;;;;;;;2.17;1.23;;;20.70;76.00;;;;;;4990543;28;20038;-49
2022/09/07 03:19:47;;;;;;;1.38;0.98;;;20.70;75.90;;;;;;4990524;28;20105;-47
2022/09/07 03:22:14;;;;;;;2.50;1.67;;;20.70;76.10;;;;;;4973735;28;20097;-51
2022/09/07 03:24:41;;;;;;;1.98;1.10;;;20.60;76.10;;;;;;5002473;28;20038;-52
2022/09/07 03:27:10;;;;;;;2.13;1.17;;;20.60;76.20;;;;;;5000859;28;20406;-49
2022/09/07 03:29:37;;;;;;;2.80;1.10;;;20.60;76.30;;;;;;5010474;28;20073;-52
2022/09/07 03:32:07;;;;;;;4.15;1.60;;;20.50;76.20;;;;;;4996875;28;20047;-52
2022/09/07 03:34:35;;;;;;;2.22;1.35;;;20.50;76.30;;;;;;4992812;28;20177;-52
2022/09/07 03:37:04;;;;;;;3.08;1.35;;;20.50;76.40;;;;;;5001273;28;20042;-49
2022/09/07 03:39:35;;;;;;;3.08;1.48;;;20.50;76.70;;;;;;5009098;28;20469;-49
2022/09/07 03:42:02;;;;;;;2.58;1.13;;;20.50;76.50;;;;;;4997714;28;20496;-50
2022/09/07 03:44:31;;;;;;;2.08;0.90;;;20.50;76.70;;;;;;5001398;28;20130;-50
2022/09/07 03:46:58;;;;;;;2.67;1.30;;;20.40;76.60;;;;;;5009361;28;20045;-51
2022/09/07 03:49:24;;;;;;;2.30;1.25;;;20.40;76.50;;;;;;4993149;28;20543;-49
2022/09/07 03:51:55;;;;;;;1.88;1.35;;;20.40;76.50;;;;;;4997581;28;20034;-49
2022/09/07 03:54:22;;;;;;;1.38;1.23;;;20.40;76.60;;;;;;4992435;28;20073;-52
2022/09/07 03:56:48;;;;;;;3.20;1.40;;;20.40;76.70;;;;;;5000919;28;20499;-52
2022/09/07 03:59:21;;;;;;;1.73;1.30;;;20.30;76.70;;;;;;4992546;28;20086;-51
2022/09/07 04:01:47;;;;;;;;;;;20.30;76.70;;;;;;4994808;28;20042;-50
2022/09/07 04:04:14;;;;;;;1.20;1.10;;;20.30;77.70;;;;;;5005276;28;19933;-49
2022/09/07 04:06:41;;;;;;;2.17;1.58;;;20.30;76.20;;;;;;5013332;28;20060;-52
2022/09/07 04:09:11;;;;;;;4.53;1.23;;;20.30;76.40;;;;;;5006085;28;20605;-49
2022/09/07 04:11:46;;;;;;;1.52;1.42;;;20.30;76.80;;;;;;4996906;28;20459;-50
2022/09/07 04:14:14;;;;;;;1.50;1.30;;;20.20;76.60;;;;;;5003972;28;20046;-51
2022/09/07 04:16:44;;;;;;;2.80;1.65;;;20.20;76.80;;;;;;4992056;28;20046;-50
2022/09/07 04:19:11;;;;;;;1.40;1.30;;;20.20;76.80;;;;;;4995452;28;20078;-55
2022/09/07 04:21:38;;;;;;;2.38;1.50;;;20.10;76.90;;;;;;4982862;28;20065;-48
2022/09/07 04:24:05;;;;;;;4.57;1.75;;;20.10;77.70;;;;;;5002003;28;20053;-48
2022/09/07 04:26:35;;;;;;;3.95;1.75;;;20.10;77.10;;;;;;4992998;28;20565;-48
2022/09/07 04:29:05;;;;;;;2.13;1.48;;;20.10;77.00;;;;;;4997347;28;20048;-50
2022/09/07 04:31:35;;;;;;;2.90;1.73;;;20.10;77.00;;;;;;5004152;28;20113;-50
2022/09/07 04:34:16;;;;;;;2.08;1.30;;;20.00;77.00;;;;;;4995123;28;20062;-51
2022/09/07 04:36:43;;;;;;;3.53;1.65;;;20.00;76.90;;;;;;5010569;28;20450;-51
2022/09/07 04:39:10;;;;;;;2.88;1.58;;;20.00;77.10;;;;;;4993481;28;20105;-48
2022/09/07 04:41:39;;;;;;;1.70;1.50;;;20.00;77.20;;;;;;4985968;28;20034;-50
2022/09/07 04:44:06;;;;;;;2.65;1.52;;;20.00;77.30;;;;;;5004015;28;20061;-49
2022/09/07 04:46:35;;;;;;;2.70;1.60;;;19.90;77.40;;;;;;5001333;28;20093;-52
2022/09/07 04:49:08;;;;;;;3.35;1.58;;;19.90;77.60;;;;;;4994293;28;20857;-46
2022/09/07 04:51:35;;;;;;;1.98;1.75;;;19.90;78.00;;;;;;4987307;28;20637;-49
2022/09/07 04:54:03;;;;;;;1.58;1.30;;;19.90;77.60;;;;;;4991645;28;20039;-48
2022/09/07 04:56:31;;;;;;;3.17;1.42;;;19.90;77.80;;;;;;4989383;28;22176;-49
2022/09/07 04:58:59;;;;;;;4.25;2.33;;;19.90;77.80;;;;;;4983897;28;20049;-50
2022/09/07 05:01:26;;;;;;;2.22;1.40;;;19.90;77.80;;;;;;4992446;28;20534;-50
2022/09/07 05:03:53;;;;;;;2.53;1.25;;;20.00;77.80;;;;;;5001251;28;20048;-51
2022/09/07 05:06:21;;;;;;;2.60;1.63;;;19.90;77.80;;;;;;5002369;28;20557;-51
2022/09/07 05:08:50;;;;;;;2.38;1.30;;;19.90;77.90;;;;;;5005417;28;20097;-52
2022/09/07 05:11:19;;;;;;;1.83;1.40;;;19.90;77.90;;;;;;5004607;28;20042;-50
2022/09/07 05:13:50;;;;;;;2.58;1.25;;;19.90;77.90;;;;;;5005053;28;20046;-52
2022/09/07 05:16:21;;;;;;;2.90;1.48;;;19.90;77.90;;;;;;4991709;28;20037;-50
2022/09/07 05:18:53;;;;;;;5.13;1.42;;;19.90;78.00;;;;;;5005725;28;20043;-52
2022/09/07 05:21:23;;;;;;;3.03;1.63;;;19.90;78.40;;;;;;4988874;28;20042;-54
2022/09/07 05:23:52;;;;;;;3.30;1.58;;;19.90;78.30;;;;;;4987075;28;20046;-56
2022/09/07 05:26:20;;;;;;;3.25;2.03;;;19.90;78.50;;;;;;4978884;28;20454;-55
2022/09/07 05:28:48;;;;;;;1.63;1.27;;;19.90;78.70;;;;;;4999949;28;20073;-55
2022/09/07 05:31:18;;;;;;;4.90;1.92;;;19.90;78.90;;;;;;4991377;28;20675;-55
2022/09/07 05:33:48;;;;;;;4.07;1.60;;;19.90;79.30;;;;;;4995579;28;20049;-55
2022/09/07 05:36:35;;;;;;;3.30;2.08;;;20.00;79.50;;;;;;5002886;28;20045;-55
2022/09/07 05:39:03;;;;;;;5.40;2.85;;;19.90;79.60;;;;;;4999447;28;20050;-53
2022/09/07 05:41:30;;;;;;;6.45;3.60;;;19.90;79.90;;;;;;5001196;28;20124;-53
2022/09/07 05:43:57;;;;;;;5.75;4.13;;;20.00;80.20;;;;;;4997950;28;20038;-55
2022/09/07 05:46:44;;;;;;;5.15;4.03;;;20.10;80.40;;;;;;4998877;28;20038;-56
2022/09/07 05:49:11;;;;;;;5.90;3.45;;;20.10;80.20;;;;;;4996864;28;20046;-54
2022/09/07 05:51:38;;;;;;;3.92;3.45;;;20.10;80.30;;;;;;4987053;28;20140;-54
2022/09/07 05:54:04;;;;;;;3.42;3.13;;;20.20;80.40;;;;;;4987819;28;20447;-53
2022/09/07 05:56:35;;;;;;;5.25;3.42;;;20.20;80.30;;;;;;4998643;28;20042;-55
2022/09/07 05:59:02;;;;;;;4.95;3.20;;;20.20;80.40;;;;;;4990784;28;20046;-56
2022/09/07 06:01:29;;;;;;;4.13;3.47;;;20.30;80.40;;;;;;4990334;28;20466;-51
2022/09/07 06:03:56;;;;;;;4.65;3.70;;;20.30;80.20;;;;;;4995545;28;20042;-55
2022/09/07 06:06:23;;;;;;;4.65;3.38;;;20.30;80.20;;;;;;5001166;28;20045;-55
2022/09/07 06:08:52;;;;;;;3.80;3.38;;;20.40;80.20;;;;;;4999018;28;20046;-55
2022/09/07 06:11:24;;;;;;;5.47;3.80;;;20.40;80.50;;;;;;4999930;28;20109;-55
2022/09/07 06:13:50;;;;;;;4.30;3.22;;;20.40;80.60;;;;;;5003329;28;20108;-55
2022/09/07 06:16:20;;;;;;;5.90;3.80;;;20.50;80.50;;;;;;4996333;28;20066;-55
2022/09/07 06:18:48;;;;;;;5.50;4.25;;;20.50;80.80;;;;;;4988760;28;20038;-56
2022/09/07 06:21:21;;;;;;;4.32;3.92;;;20.60;81.10;;;;;;5000566;28;20064;-55
2022/09/07 06:23:49;;;;;;;7.97;4.30;;;20.60;81.00;;;;;;5006598;28;20033;-54
2022/09/07 06:26:17;;;;;;;4.75;4.25;;;20.70;80.40;;;;;;4984404;28;20096;-55
2022/09/07 06:28:46;;;;;;;4.05;3.65;;;20.70;80.00;;;;;;4995800;28;20096;-55
2022/09/07 06:31:21;;;;;;;6.15;4.22;;;20.70;80.00;;;;;;4999480;28;20084;-55
2022/09/07 06:33:50;;;;;;;5.38;4.10;;;20.70;80.10;;;;;;4998111;28;20057;-55
2022/09/07 06:36:22;;;;;;;6.30;3.85;;;20.70;80.00;;;;;;4983056;28;20046;-54
2022/09/07 06:38:50;;;;;;;6.03;4.47;;;20.70;80.20;;;;;;4997163;28;20046;-54
2022/09/07 06:41:19;;;;;;;4.50;3.63;;;20.80;80.20;;;;;;4997369;28;20450;-54
2022/09/07 06:44:06;;;;;;;4.57;4.18;;;20.80;80.00;;;;;;4984216;28;20034;-55
2022/09/07 06:46:33;;;;;;;6.63;4.20;;;20.80;80.00;;;;;;5003279;28;20089;-55
2022/09/07 06:49:19;;;;;;;7.30;4.35;;;20.80;79.70;;;;;;4989790;28;20837;-54
2022/09/07 06:51:46;;;;;;;7.05;4.22;;;20.80;79.60;;;;;;4984991;28;20088;-56
2022/09/07 06:54:13;;;;;;;4.65;4.15;;;20.70;79.40;;;;;;5002104;28;20042;-55
2022/09/07 06:57:07;;;;;;;5.72;4.10;;;20.70;79.50;;;;;;4993361;28;20069;-56
2022/09/07 06:59:34;;;;;;;6.82;5.10;;;20.70;79.40;;;;;;4988656;28;20057;-56
2022/09/07 07:02:01;;;;;;;7.13;4.65;;;20.70;79.30;;;;;;4998936;28;20034;-56
2022/09/07 07:04:28;;;;;;;5.93;4.63;;;20.60;79.40;;;;;;5005129;28;20046;-56
2022/09/07 07:06:55;;;;;;;5.03;4.30;;;20.60;79.60;;;;;;4991753;28;20092;-55
2022/09/07 07:09:21;;;;;;;5.20;4.65;;;20.60;79.80;;;;;;4993601;28;20107;-55
2022/09/07 07:11:48;;;;;;;7.07;4.95;;;20.60;79.90;;;;;;4997359;28;20439;-56
2022/09/07 07:14:16;;;;;;;4.63;4.15;;;20.50;80.10;;;;;;5006028;28;20046;-53
2022/09/07 07:16:43;;;;;;;5.25;4.50;;;20.50;80.50;;;;;;4989777;28;20044;-56
2022/09/07 07:19:10;;;;;;;7.25;4.80;;;20.50;80.50;;;;;;4993187;28;20038;-55
2022/09/07 07:21:36;;;;;;;5.88;4.60;;;20.50;80.50;;;;;;4989924;28;20031;-54
2022/09/07 07:24:23;;;;;;;9.75;5.90;;;20.50;80.70;;;;;;4988178;28;20538;-55
2022/09/07 07:26:50;;;;;;;10.63;5.10;;;20.50;81.20;;;;;;4997622;28;20050;-55
2022/09/07 07:29:17;;;;;;;5.55;4.95;;;20.60;81.40;;;;;;5000453;28;20046;-54
2022/09/07 07:31:45;;;;;;;8.02;5.65;;;20.70;82.10;;;;;;4992959;28;20099;-54
2022/09/07 07:34:12;;;;;;;9.32;6.28;;;20.60;81.20;;;;;;4999552;28;20046;-55
2022/09/07 07:36:39;;;;;;;7.13;5.90;;;20.60;81.00;;;;;;4995818;28;20049;-56
2022/09/07 07:39:06;;;;;;;6.90;6.20;;;20.70;81.30;;;;;;4998319;28;20572;-55
2022/09/07 07:41:33;;;;;;;7.28;5.95;;;20.60;81.20;;;;;;4995645;28;20549;-53
2022/09/07 07:44:20;;;;;;;7.07;6.32;;;20.60;81.60;;;;;;4988775;28;20514;-53
2022/09/07 07:46:48;;;;;;;8.73;6.72;;;20.80;82.00;;;;;;4989480;28;20052;-55
2022/09/07 07:49:15;;;;;;;7.18;6.35;;;20.70;82.10;;;;;;4988255;28;20050;-56
2022/09/07 07:51:44;;;;;;;12.25;6.85;;;20.70;82.30;;;;;;4997339;28;20042;-57
2022/09/07 07:54:35;;;;;;;8.05;6.47;;;20.70;82.10;;;;;;4989594;28;20038;-54
2022/09/07 07:57:06;;;;;;;8.20;6.27;;;20.80;82.50;;;;;;4996730;28;20042;-56
2022/09/07 07:59:34;;;;;;;7.30;6.45;;;20.90;82.40;;;;;;4989836;28;20414;-55
2022/09/07 08:02:03;;;;;;;8.15;6.95;;;20.90;82.90;;;;;;4997111;28;20050;-54
2022/09/07 08:04:34;;;;;;;8.13;5.93;;;21.00;83.00;;;;;;4990998;28;20049;-52
2022/09/07 08:07:02;;;;;;;6.88;5.90;;;21.00;83.10;;;;;;4999753;28;20411;-53
2022/09/07 08:09:36;;;;;;;9.45;5.03;;;21.20;83.30;;;;;;5001249;28;20042;-53
2022/09/07 08:12:03;;;;;;;6.60;6.00;;;21.10;83.20;;;;;;4994039;28;20160;-54
2022/09/07 08:14:30;;;;;;;7.38;5.85;;;21.20;83.30;;;;;;4979207;28;20062;-54
2022/09/07 08:16:57;;;;;;;8.63;6.38;;;21.30;83.10;;;;;;4996255;28;20061;-54
2022/09/07 08:19:23;;;;;;;8.50;6.60;;;21.30;83.40;;;;;;4999309;28;20030;-53
2022/09/07 08:21:50;;;;;;;5.80;4.82;;;21.40;82.90;;;;;;4993331;28;20030;-55
2022/09/07 08:24:17;;;;;;;7.07;5.07;;;21.40;82.70;;;;;;4998353;28;20398;-52
2022/09/07 08:26:46;;;;;;;5.50;4.97;;;21.50;82.60;;;;;;4982709;28;20054;-55
2022/09/07 08:29:13;;;;;;;6.97;4.78;;;21.50;82.50;;;;;;4989639;28;20320;-53
2022/09/07 08:31:43;;;;;;;6.72;5.10;;;21.50;82.30;;;;;;4989526;28;20088;-56
2022/09/07 08:34:10;;;;;;;5.65;5.05;;;21.50;82.30;;;;;;4992591;28;20057;-55
2022/09/07 08:36:36;;;;;;;5.40;4.88;;;21.50;82.10;;;;;;4985239;28;20042;-55
2022/09/07 08:39:06;;;;;;;6.10;5.28;;;21.60;82.50;;;;;;4989243;28;20053;-56
2022/09/07 08:41:57;;;;;;;8.13;6.35;;;21.60;82.80;;;;;;4997180;28;20049;-54
2022/09/07 08:44:33;;;;;;;7.65;6.13;;;21.60;82.50;;;;;;4993588;28;20046;-56
2022/09/07 08:47:39;;;;;;;7.60;6.15;;;21.70;82.90;;;;;;4992952;28;20138;-54
2022/09/07 08:50:24;;;;;;;7.78;5.55;;;21.80;84.10;;;;;;4991315;28;20503;-53
2022/09/07 08:52:56;;;;;;;6.85;5.95;;;21.80;84.00;;;;;;4996663;28;20043;-56
2022/09/07 08:55:37;;;;;;;7.10;6.40;;;21.90;84.70;;;;;;4993408;28;20073;-54
2022/09/07 08:58:34;;;;;;;6.78;6.07;;;22.00;84.30;;;;;;4992098;28;20499;-55
2022/09/07 09:01:25;;;;;;;10.98;6.30;;;22.10;83.70;;;;;;4982493;28;20100;-54
2022/09/07 09:04:00;;;;;;;6.85;6.15;;;22.30;84.20;;;;;;5002604;28;20042;-55
2022/09/07 09:07:13;;;;;;;7.97;6.55;;;22.20;83.30;;;;;;4993703;28;20045;-55
2022/09/07 09:10:21;;;;;;;6.65;5.72;;;22.20;83.40;;;;;;4994388;28;20054;-55
2022/09/07 09:13:16;;;;;;;6.65;6.07;;;22.30;83.20;;;;;;4997278;28;20046;-54
2022/09/07 09:15:50;;;;;;;6.97;6.05;;;22.30;82.10;;;;;;4987912;28;20072;-52
2022/09/07 09:18:44;;;;;;;8.30;6.10;;;22.30;81.60;;;;;;4995434;28;20050;-55
2022/09/07 09:21:16;;;;;;;7.90;6.47;;;22.40;82.30;;;;;;4990317;28;20042;-54
2022/09/07 09:23:46;;;;;;;7.53;6.82;;;22.30;82.30;;;;;;5001992;28;20038;-53
2022/09/07 09:26:23;;;;;;;7.88;7.20;;;22.40;82.00;;;;;;5012222;28;20449;-55
2022/09/07 09:28:50;;;;;;;8.05;6.85;;;22.40;81.80;;;;;;4995224;28;20506;-53
2022/09/07 09:31:31;;;;;;;8.15;7.25;;;22.40;81.30;;;;;;5005430;28;20038;-53
2022/09/07 09:34:04;;;;;;;8.32;7.53;;;22.40;81.40;;;;;;4991085;28;20054;-53
2022/09/07 09:36:33;;;;;;;8.68;7.78;;;22.40;80.90;;;;;;4976287;28;20058;-53
2022/09/07 09:39:00;;;;;;;8.77;6.95;;;22.40;81.10;;;;;;4995488;28;20093;-51
2022/09/07 09:41:35;;;;;;;7.22;6.53;;;22.40;81.70;;;;;;4982462;28;20116;-53
2022/09/07 09:44:02;;;;;;;7.72;7.00;;;22.40;82.10;;;;;;5000253;28;20041;-55
2022/09/07 09:46:36;;;;;;;7.38;6.63;;;22.40;82.30;;;;;;4992557;28;20045;-53
2022/09/07 09:49:17;;;;;;;8.20;7.05;;;22.50;82.40;;;;;;4993323;28;20037;-53
2022/09/07 09:51:46;;;;;;;8.95;6.75;;;22.50;83.00;;;;;;4996641;28;20454;-55
2022/09/07 09:54:42;;;;;;;7.65;6.85;;;22.50;82.70;;;;;;5010412;28;20049;-52
2022/09/07 09:57:15;;;;;;;7.72;6.82;;;22.60;82.50;;;;;;4986319;28;20042;-53
2022/09/07 09:59:41;;;;;;;8.07;7.22;;;22.70;83.10;;;;;;4974584;28;20129;-51
2022/09/07 10:02:37;;;;;;;7.22;6.53;;;22.70;83.30;;;;;;4973641;28;20504;-54
2022/09/07 10:05:35;;;;;;;10.07;7.22;;;22.80;83.20;;;;;;4986870;28;20117;-51
2022/09/07 10:08:13;;;;;;;10.02;7.45;;;23.00;83.60;;;;;;4986378;28;20096;-51
2022/09/07 10:10:54;;;;;;;11.98;7.82;;;23.10;83.60;;;;;;4998188;28;20121;-54
2022/09/07 10:13:34;;;;;;;9.55;8.65;;;23.20;83.50;;;;;;4991011;28;20503;-55
2022/09/07 10:16:04;;;;;;;13.32;8.35;;;23.30;83.70;;;;;;4987553;28;20041;-51
2022/09/07 10:18:40;;;;;;;8.93;8.00;;;23.50;83.50;;;;;;5003819;28;20042;-53
2022/09/07 10:21:24;;;;;;;9.73;7.65;;;23.60;82.20;;;;;;4973353;28;20058;-55
2022/09/07 10:24:11;;;;;;;9.20;7.63;;;23.70;81.50;;;;;;4982233;28;20487;-55
2022/09/07 10:26:38;;;;;;;10.50;8.02;;;23.80;80.20;;;;;;4999735;28;20041;-55
2022/09/07 10:29:26;;;;;;;9.75;7.72;;;23.80;78.80;;;;;;5002529;28;20038;-55
2022/09/07 10:32:24;;;;;;;11.68;8.05;;;23.80;78.30;;;;;;4994329;28;20048;-52
2022/09/07 10:34:57;;;;;;;8.60;7.78;;;23.80;77.90;;;;;;4999686;28;20046;-53
2022/09/07 10:37:49;;;;;;;8.98;7.03;;;23.80;77.10;;;;;;4998594;28;20128;-55
2022/09/07 10:40:27;;;;;;;8.02;6.57;;;23.80;76.70;;;;;;4997141;28;20531;-55
2022/09/07 10:43:06;;;;;;;8.23;6.90;;;23.80;75.50;;;;;;4992882;28;20046;-55
2022/09/07 10:46:07;;;;;;;7.20;5.97;;;23.80;75.00;;;;;;4987644;28;20390;-53
2022/09/07 10:48:48;;;;;;;8.27;5.95;;;23.90;74.60;;;;;;4998848;28;20038;-55
2022/09/07 10:51:36;;;;;;;5.50;5.00;;;23.90;74.20;;;;;;4977008;28;20048;-55
2022/09/07 10:54:29;;;;;;;6.40;5.68;;;24.00;72.40;;;;;;5001988;28;20046;-52
2022/09/07 10:57:15;;;;;;;5.20;4.75;;;24.00;71.70;;;;;;4982011;28;20141;-54
2022/09/07 11:00:02;;;;;;;6.05;5.03;;;24.10;72.10;;;;;;4989738;28;20049;-54
2022/09/07 11:02:58;;;;;;;5.53;5.03;;;24.20;71.80;;;;;;4988643;28;20050;-52
2022/09/07 11:05:54;;;;;;;5.60;5.00;;;24.30;72.80;;;;;;4985950;28;20575;-55
2022/09/07 11:08:39;;;;;;;4.60;3.92;;;24.40;71.70;;;;;;4972115;28;20070;-54
2022/09/07 11:11:38;;;;;;;4.88;4.38;;;24.50;70.90;;;;;;4986286;28;20061;-51
2022/09/07 11:14:27;;;;;;;4.45;3.67;;;24.50;70.50;;;;;;4996451;28;20698;-51
2022/09/07 11:17:01;;;;;;;4.47;4.03;;;24.60;70.00;;;;;;4994895;28;20046;-54
2022/09/07 11:19:51;;;;;;;4.32;3.95;;;24.60;69.90;;;;;;4983839;28;20070;-52
2022/09/07 11:22:28;;;;;;;5.07;3.72;;;24.60;69.80;;;;;;4995083;28;20128;-55
2022/09/07 11:25:14;;;;;;;4.22;3.47;;;24.60;68.50;;;;;;4981711;28;20042;-51
2022/09/07 11:28:15;;;;;;;4.60;3.05;;;24.60;67.20;;;;;;5005123;28;20120;-55
2022/09/07 11:30:48;;;;;;;3.03;2.70;;;24.70;67.50;;;;;;5000843;28;20061;-53
2022/09/07 11:33:23;;;;;;;2.90;2.60;;;24.70;67.50;;;;;;5002345;28;20058;-53
2022/09/07 11:35:54;;;;;;;4.82;3.20;;;24.70;66.80;;;;;;4979420;28;20126;-52
2022/09/07 11:38:40;;;;;;;3.40;2.45;;;24.70;67.10;;;;;;4981820;28;20451;-55
2022/09/07 11:41:16;;;;;;;2.60;2.22;;;24.80;68.00;;;;;;4994384;28;20046;-55
2022/09/07 11:43:46;;;;;;;2.00;1.70;;;24.90;65.70;;;;;;4997808;28;20038;-52
2022/09/07 11:46:43;;;;;;;2.97;1.90;;;24.90;67.10;;;;;;5009698;28;20041;-53
2022/09/07 11:49:23;;;;;;;3.67;2.00;;;25.00;67.00;;;;;;4993762;28;20110;-53
2022/09/07 11:51:59;;;;;;;3.92;1.42;;;25.10;65.10;;;;;;4991703;28;20041;-55
2022/09/07 11:55:04;;;;;;;2.53;1.42;;;25.20;65.80;;;;;;4955006;28;20496;-55
2022/09/07 11:57:42;;;;;;;3.22;1.33;;;25.30;64.30;;;;;;4970193;28;20085;-55
2022/09/07 12:00:50;;;;;;;1.65;1.40;;;25.40;63.70;;;;;;4990560;28;20046;-54
2022/09/07 12:03:46;;;;;;;2.80;1.38;;;25.40;63.00;;;;;;5001495;28;20100;-55
2022/09/07 12:06:35;;;;;;;2.47;1.48;;;25.50;61.60;;;;;;4989464;28;20050;-54
2022/09/07 12:09:20;;;;;;;4.43;1.50;;;25.50;61.60;;;;;;4989148;28;20039;-55
2022/09/07 12:12:21;;;;;;;5.22;1.30;;;25.60;61.30;;;;;;5002214;28;20164;-55
2022/09/07 12:15:16;;;;;;;2.60;1.02;;;25.60;60.30;;;;;;4992831;28;20108;-55
2022/09/07 12:17:55;;;;;;;1.48;1.10;;;25.60;60.40;;;;;;4994153;28;20503;-55
2022/09/07 12:20:38;;;;;;;6.20;1.85;;;25.70;60.00;;;;;;4979899;28;20046;-54
2022/09/07 12:23:14;;;;;;;1.30;0.90;;;25.80;60.70;;;;;;4994913;28;20070;-54
2022/09/07 12:25:46;;;;;;;3.70;1.45;;;25.90;60.10;;;;;;4994406;28;20043;-52
2022/09/07 12:28:23;;;;;;;3.97;0.98;;;26.10;59.50;;;;;;5007377;28;20045;-55
2022/09/07 12:31:03;;;;;;;2.22;0.95;;;26.20;59.60;;;;;;5009158;28;20041;-55
2022/09/07 12:33:30;;;;;;;3.97;1.27;;;26.30;58.50;;;;;;5011107;28;20519;-55
2022/09/07 12:35:59;;;;;;;1.20;1.00;;;26.40;57.80;;;;;;4987540;28;20057;-55
2022/09/07 12:38:29;;;;;;;3.20;1.40;;;26.50;57.20;;;;;;4986527;28;20566;-53
2022/09/07 12:41:22;;;;;;;4.78;1.27;;;26.60;56.70;;;;;;5004956;28;20845;-54
2022/09/07 12:43:48;;;;;;;2.72;0.90;;;26.70;57.10;;;;;;5002335;28;20042;-52
2022/09/07 12:46:42;;;;;;;1.83;0.65;;;26.90;56.70;;;;;;5004349;28;20054;-55
2022/09/07 12:49:16;;;;;;;2.35;0.75;;;27.00;55.30;;;;;;5003574;28;20061;-56
2022/09/07 12:52:09;;;;;;;2.33;1.05;;;27.10;54.70;;;;;;4974829;28;20125;-56
2022/09/07 12:55:08;;;;;;;1.98;0.80;;;27.20;53.50;;;;;;4952007;28;20141;-56
2022/09/07 12:58:11;;;;;;;3.37;0.77;;;27.30;54.40;;;;;;4966768;28;20507;-55
2022/09/07 13:01:04;;;;;;;4.32;0.98;;;27.40;52.60;;;;;;4992845;28;20041;-55
2022/09/07 13:03:36;;;;;;;3.42;1.17;;;27.50;52.60;;;;;;4992150;28;20050;-56
2022/09/07 13:06:58;;;;;;;3.53;0.90;;;27.60;53.70;;;;;;5001780;28;20123;-52
2022/09/07 13:09:41;;;;;;;2.30;0.60;;;27.80;53.00;;;;;;4985781;28;20521;-56
2022/09/07 13:12:33;;;;;;;2.38;0.70;;;27.90;51.80;;;;;;5012355;28;20437;-53
2022/09/07 13:15:34;;;;;;;;;;;28.10;51.80;;;;;;4989316;28;20050;-55
2022/09/07 13:18:04;;;;;;;1.50;0.70;;;28.20;53.60;;;;;;4994607;28;20359;-54
2022/09/07 13:20:34;;;;;;;1.77;0.80;;;28.30;52.20;;;;;;4983126;28;20046;-54
2022/09/07 13:23:21;;;;;;;1.95;0.65;;;28.30;51.30;;;;;;4990776;28;20046;-54
2022/09/07 13:25:50;;;;;;;1.88;0.82;;;28.40;50.10;;;;;;5004061;28;20038;-55
2022/09/07 13:28:21;;;;;;;4.43;1.23;;;28.50;50.10;;;;;;5012455;28;20596;-55
2022/09/07 13:31:05;;;;;;;2.33;0.82;;;28.50;49.30;;;;;;4998010;28;20129;-55
2022/09/07 13:33:46;;;;;;;2.05;0.80;;;28.60;50.20;;;;;;4991921;28;20080;-55